createdAt,value
2023-02-22T00:01:19.372Z,62.30
2023-02-22T00:06:25.198Z,60.70
2023-02-22T00:11:27.052Z,50.30
2023-02-22T00:16:30.775Z,85.50
2023-02-22T00:21:32.584Z,99.60
2023-02-22T00:26:34.398Z,132.50
2023-02-22T00:31:39.332Z,102.20
2023-02-22T00:36:49.320Z,141.50
2023-02-22T00:41:51.381Z,220.70
2023-02-22T00:46:53.182Z,189.10
2023-02-22T00:56:59.117Z,151.40
2023-02-22T01:02:02.316Z,105.30
2023-02-22T01:07:05.032Z,62.10
2023-02-22T01:12:08.079Z,38.90
2023-02-22T01:17:10.215Z,36.10
2023-02-22T01:22:11.976Z,35.40
2023-02-22T01:27:14.564Z,40.10
2023-02-22T01:32:16.370Z,29.70
2023-02-22T01:37:18.107Z,26.30
2023-02-22T01:47:23.575Z,28.50
2023-02-22T01:52:25.416Z,39.80
2023-02-22T01:57:33.070Z,38.10
2023-02-22T02:02:37.502Z,32.90
2023-02-22T02:07:40.711Z,37.20
2023-02-22T02:12:49.754Z,33.00
2023-02-22T02:17:53.883Z,39.40
2023-02-22T02:23:13.532Z,34.30
2023-02-22T02:28:53.446Z,37.60
2023-02-22T02:34:05.265Z,32.50
2023-02-22T02:39:36.087Z,37.00
2023-02-22T02:44:47.038Z,62.20
2023-02-22T02:50:00.560Z,40.10
2023-02-22T02:55:06.522Z,44.40
2023-02-22T03:00:22.724Z,28.40
2023-02-22T03:06:03.073Z,37.10
2023-02-22T03:11:15.130Z,37.10
2023-02-22T03:16:52.172Z,44.80
2023-02-22T03:22:14.183Z,34.90
2023-02-22T03:27:26.172Z,61.10
2023-02-22T03:32:33.514Z,77.60
2023-02-22T03:37:40.646Z,85.40
2023-02-22T03:42:48.772Z,98.80
2023-02-22T03:47:59.889Z,99.50
2023-02-22T03:53:02.547Z,113.80
2023-02-22T03:58:09.759Z,110.30
2023-02-22T04:03:12.835Z,106.50
2023-02-22T04:08:15.052Z,139.80
2023-02-22T04:13:16.834Z,98.30
2023-02-22T04:18:21.963Z,99.50
2023-02-22T04:23:24.545Z,105.40
2023-02-22T04:28:26.398Z,106.50
2023-02-22T04:33:36.453Z,102.00
2023-02-22T04:38:38.966Z,222.40
2023-02-22T04:43:40.860Z,136.40
2023-02-22T04:49:16.772Z,136.40
2023-02-22T04:54:20.182Z,160.20
2023-02-22T04:59:22.828Z,160.30
2023-02-22T05:06:23.848Z,154.10
2023-02-22T05:11:25.682Z,124.70
2023-02-22T05:16:27.547Z,125.70
2023-02-22T05:21:29.267Z,107.70
2023-02-22T05:26:30.956Z,111.20
2023-02-22T05:31:32.757Z,114.60
2023-02-22T05:36:34.527Z,111.70
2023-02-22T05:41:36.224Z,106.80
2023-02-22T05:46:38.122Z,132.80
2023-02-22T05:51:40.053Z,122.40
2023-02-22T05:56:41.828Z,133.40
2023-02-22T06:01:43.616Z,149.80
2023-02-22T06:06:45.810Z,99.70
2023-02-22T06:11:47.611Z,143.10
2023-02-22T06:21:57.416Z,109.50
2023-02-22T06:27:01.852Z,155.20
2023-02-22T06:32:03.823Z,154.00
2023-02-22T06:37:06.094Z,247.50
2023-02-22T06:42:08.035Z,202.70
2023-02-22T06:47:10.022Z,251.60
2023-02-22T06:52:11.744Z,246.90
2023-02-22T06:57:13.547Z,179.30
2023-02-22T07:02:15.386Z,165.30
2023-02-22T07:07:17.046Z,120.40
2023-02-22T07:17:20.323Z,91.40
2023-02-22T07:22:21.985Z,119.30
2023-02-22T07:37:27.135Z,77.40
2023-02-22T07:47:30.387Z,90.70
2023-02-22T07:52:32.294Z,92.80
2023-02-22T07:57:33.973Z,123.20
2023-02-22T08:02:35.688Z,145.20
2023-02-22T08:07:38.013Z,146.10
2023-02-22T08:12:39.779Z,123.90
2023-02-22T08:17:41.528Z,111.90
2023-02-22T08:22:44.204Z,89.00
2023-02-22T08:27:46.109Z,88.30
2023-02-22T08:32:49.068Z,77.50
2023-02-22T08:37:55.231Z,58.40
2023-02-22T08:42:57.801Z,50.80
2023-02-22T08:47:59.770Z,53.20
2023-02-22T08:53:04.592Z,54.50
2023-02-22T08:58:09.475Z,45.40
2023-02-22T09:03:14.412Z,40.50
2023-02-22T09:08:17.436Z,40.30
2023-02-22T09:13:19.370Z,43.40
2023-02-22T09:18:21.188Z,47.40
2023-02-22T09:23:22.906Z,40.10
2023-02-22T09:28:24.992Z,32.10
2023-02-22T09:33:26.888Z,34.30
2023-02-22T09:38:30.215Z,32.10
2023-02-22T09:43:43.946Z,34.70
2023-02-22T09:49:01.239Z,31.10
2023-02-22T09:54:06.482Z,23.40
2023-02-22T09:59:13.070Z,29.40
2023-02-22T10:04:24.952Z,30.00
2023-02-22T10:09:29.335Z,30.50
2023-02-22T10:14:48.816Z,26.80
2023-02-22T10:20:25.437Z,26.50
2023-02-22T10:25:35.021Z,23.90
2023-02-22T10:30:45.980Z,33.30
2023-02-22T10:35:48.517Z,25.70
2023-02-22T10:40:59.936Z,25.10
2023-02-22T10:51:08.735Z,24.30
2023-02-22T10:56:23.551Z,21.90
2023-02-22T11:01:31.497Z,19.60
2023-02-22T11:06:34.943Z,24.80
2023-02-22T11:11:38.222Z,23.50
2023-02-22T11:16:52.440Z,19.60
2023-02-22T11:22:10.254Z,23.20
2023-02-22T11:27:43.301Z,24.00
2023-02-22T11:32:48.140Z,26.80
2023-02-22T11:37:50.690Z,25.40
2023-02-22T11:43:12.225Z,19.40
2023-02-22T11:48:21.056Z,25.50
2023-02-22T11:53:45.720Z,27.00
2023-02-22T11:59:02.776Z,14.50
2023-02-22T12:04:39.331Z,16.10
2023-02-22T12:09:54.677Z,21.00
2023-02-22T12:15:02.963Z,12.70
2023-02-22T12:20:22.036Z,14.80
2023-02-22T12:25:31.770Z,17.20
2023-02-22T12:30:39.546Z,24.00
2023-02-22T12:35:49.256Z,19.10
2023-02-22T12:41:22.654Z,18.30
2023-02-22T12:46:34.231Z,17.10
2023-02-22T12:51:57.133Z,18.70
2023-02-22T12:57:20.063Z,24.10
2023-02-22T13:02:47.815Z,25.40
2023-02-22T13:08:14.052Z,22.10
2023-02-22T13:13:29.882Z,20.00
2023-02-22T13:18:39.282Z,27.00
2023-02-22T13:23:53.013Z,22.30
2023-02-22T13:29:04.182Z,21.40
2023-02-22T13:34:34.292Z,19.10
2023-02-22T13:40:04.538Z,22.80
2023-02-22T13:45:27.010Z,20.80
2023-02-22T13:51:04.738Z,28.20
2023-02-22T13:56:07.134Z,36.50
2023-02-22T14:01:42.857Z,28.10
2023-02-22T14:06:45.783Z,32.00
2023-02-22T14:11:48.516Z,31.90
2023-02-22T14:17:20.614Z,29.20
2023-02-22T14:22:29.968Z,28.00
2023-02-22T14:27:40.569Z,32.00
2023-02-22T14:32:42.419Z,29.80
2023-02-22T14:37:54.293Z,28.60
2023-02-22T14:43:04.795Z,28.80
2023-02-22T14:48:11.837Z,29.40
2023-02-22T14:53:20.148Z,46.40
2023-02-22T14:58:29.624Z,33.10
2023-02-22T15:03:37.491Z,26.30
2023-02-22T15:08:41.778Z,28.30
2023-02-22T15:13:53.492Z,25.30
2023-02-22T15:19:01.441Z,26.40
2023-02-22T15:24:07.736Z,30.30
2023-02-22T15:29:16.841Z,34.10
2023-02-22T15:34:29.278Z,26.90
2023-02-22T15:39:34.435Z,26.10
2023-02-22T15:44:44.186Z,31.00
2023-02-22T15:49:46.381Z,50.90
2023-02-22T15:54:51.920Z,36.60
2023-02-22T15:59:56.443Z,39.70
2023-02-22T16:05:11.805Z,43.00
2023-02-22T16:10:33.477Z,43.60
2023-02-22T16:20:37.724Z,39.90
2023-02-22T16:25:39.709Z,54.00
2023-02-22T16:30:41.720Z,41.10
2023-02-22T16:35:52.109Z,55.80
2023-02-22T16:40:58.106Z,64.80
2023-02-22T16:46:01.645Z,51.20
2023-02-22T16:51:09.039Z,43.80
2023-02-22T16:56:16.162Z,79.40
2023-02-22T17:01:18.873Z,58.70
2023-02-22T17:06:21.170Z,58.00
2023-02-22T17:11:23.021Z,65.00
2023-02-22T17:16:24.992Z,76.00
2023-02-22T17:21:26.801Z,74.40
2023-02-22T17:26:28.625Z,75.40
2023-02-22T17:31:31.230Z,94.80
2023-02-22T17:36:36.369Z,120.50
2023-02-22T17:41:40.271Z,109.00
2023-02-22T17:46:42.494Z,96.40
2023-02-22T17:51:49.678Z,101.60
2023-02-22T17:56:51.480Z,92.50
2023-02-22T18:01:53.294Z,94.30
2023-02-22T18:06:55.056Z,95.90
2023-02-22T18:11:56.975Z,93.40
2023-02-22T18:16:58.662Z,89.30
2023-02-22T18:22:03.149Z,97.30
2023-02-22T18:27:05.961Z,96.30
2023-02-22T18:32:12.593Z,88.20
2023-02-22T18:37:20.387Z,109.90
2023-02-22T18:42:23.706Z,120.90
2023-02-22T18:47:25.457Z,146.40
2023-02-22T18:52:27.157Z,120.40
2023-02-22T18:57:29.021Z,115.40
2023-02-22T19:02:30.742Z,100.90
2023-02-22T19:07:32.927Z,88.40
2023-02-22T19:12:34.860Z,76.50
2023-02-22T19:17:36.665Z,71.20
2023-02-22T19:27:45.252Z,76.00
2023-02-22T19:32:47.562Z,70.70
2023-02-22T19:37:54.320Z,65.50
2023-02-22T19:42:57.697Z,149.50
2023-02-22T19:47:59.434Z,129.50
2023-02-22T19:53:01.814Z,151.90
2023-02-22T19:58:03.618Z,159.50
2023-02-22T20:03:11.409Z,160.10
2023-02-22T20:08:13.466Z,185.30
2023-02-22T20:13:17.189Z,162.30
2023-02-22T20:18:20.294Z,145.20
2023-02-22T20:23:22.377Z,155.30
2023-02-22T20:28:24.471Z,210.50
2023-02-22T20:33:26.420Z,156.10
2023-02-22T20:38:28.728Z,239.90
2023-02-22T20:43:31.525Z,145.30
2023-02-22T20:48:36.681Z,182.80
2023-02-22T20:53:43.609Z,165.40
2023-02-22T20:58:50.102Z,165.50
2023-02-22T21:04:02.888Z,138.20
2023-02-22T21:09:09.073Z,140.50
2023-02-22T21:14:19.740Z,155.40
2023-02-22T21:19:27.614Z,161.90
2023-02-22T21:24:29.504Z,160.10
2023-02-22T21:29:34.667Z,152.60
2023-02-22T21:34:36.676Z,170.80
2023-02-22T21:39:38.751Z,177.20
2023-02-22T21:44:40.441Z,160.00
2023-02-22T21:49:42.254Z,151.10
2023-02-22T21:54:44.714Z,144.50
2023-02-22T21:59:48.640Z,137.20
2023-02-22T22:04:50.948Z,142.30
2023-02-22T22:09:56.563Z,146.90
2023-02-22T22:15:02.132Z,152.70
2023-02-22T22:20:05.442Z,143.70
2023-02-22T22:25:07.663Z,149.10
2023-02-22T22:30:16.350Z,134.80
2023-02-22T22:35:18.175Z,125.60
2023-02-22T22:45:21.708Z,133.00
2023-02-22T22:50:26.444Z,124.70
2023-02-22T22:55:28.325Z,141.70
2023-02-22T23:00:35.181Z,128.90
2023-02-22T23:05:39.826Z,140.00
2023-02-22T23:10:41.760Z,136.40
2023-02-22T23:15:47.525Z,124.90
2023-02-22T23:20:55.121Z,125.60
2023-02-22T23:26:11.744Z,134.30
2023-02-22T23:31:18.102Z,121.60
2023-02-22T23:36:20.190Z,125.40
2023-02-22T23:41:42.584Z,125.60
2023-02-22T23:46:47.902Z,117.60
2023-02-22T23:51:50.113Z,116.00
2023-02-22T23:56:58.289Z,122.10
